createdAt,value
2017-08-09T00:00:27.260Z,27.6
2017-08-09T00:01:29.391Z,27.6
2017-08-09T00:02:31.521Z,27.7
2017-08-09T00:03:33.652Z,27.7
2017-08-09T00:04:35.781Z,27.7
2017-08-09T00:05:37.925Z,27.7
2017-08-09T00:06:40.054Z,27.6
2017-08-09T00:07:41.501Z,27.6
2017-08-09T00:08:43.631Z,27.6
2017-08-09T00:09:45.431Z,27.7
2017-08-09T00:10:47.561Z,27.7
2017-08-09T00:11:49.336Z,27.6
2017-08-09T00:12:51.134Z,27.7
2017-08-09T00:13:53.265Z,27.6
2017-08-09T00:15:01.661Z,27.7
2017-08-09T00:16:03.463Z,27.6
2017-08-09T00:17:05.602Z,27.6
2017-08-09T00:18:07.730Z,27.7
2017-08-09T00:19:09.527Z,27.5
2017-08-09T00:20:11.655Z,27.7
2017-08-09T00:21:13.453Z,27.6
2017-08-09T00:22:14.900Z,27.7
2017-08-09T00:23:16.696Z,27.7
2017-08-09T00:24:18.175Z,27.6
2017-08-09T00:25:20.306Z,27.7
2017-08-09T00:26:22.435Z,27.6
2017-08-09T00:27:24.232Z,27.6
2017-08-09T00:28:26.364Z,27.6
2017-08-09T00:29:28.162Z,27.6
2017-08-09T00:30:29.947Z,27.6
2017-08-09T00:31:31.743Z,27.6
2017-08-09T00:32:33.519Z,27.6
2017-08-09T00:33:34.986Z,27.6
2017-08-09T00:34:36.788Z,27.7
2017-08-09T00:35:37.563Z,27.6
2017-08-09T00:36:39.027Z,27.6
2017-08-09T00:37:40.824Z,27.5
2017-08-09T00:38:42.272Z,27.6
2017-08-09T00:39:44.399Z,27.6
2017-08-09T00:40:46.534Z,27.6
2017-08-09T00:41:48.335Z,27.7
2017-08-09T00:42:50.467Z,27.6
2017-08-09T00:43:51.906Z,27.6
2017-08-09T00:44:54.038Z,27.6
2017-08-09T00:45:56.166Z,27.5
2017-08-09T00:46:57.609Z,27.6
2017-08-09T00:47:59.738Z,27.6
2017-08-09T00:49:01.539Z,27.6
2017-08-09T00:50:03.669Z,27.7
2017-08-09T00:51:05.803Z,27.6
2017-08-09T00:52:07.931Z,27.6
2017-08-09T00:53:09.706Z,27.6
2017-08-09T00:54:11.838Z,27.6
2017-08-09T00:55:13.969Z,27.6
2017-08-09T00:56:15.780Z,27.5
2017-08-09T00:57:17.564Z,27.6
2017-08-09T00:58:19.709Z,27.6
2017-08-09T00:59:21.485Z,27.6
2017-08-09T01:00:23.619Z,27.6
2017-08-09T01:01:25.747Z,27.5
2017-08-09T01:02:27.876Z,27.5
2017-08-09T01:03:30.021Z,27.5
2017-08-09T01:04:31.132Z,27.5
2017-08-09T01:05:33.262Z,27.6
2017-08-09T01:06:35.391Z,27.5
2017-08-09T01:07:36.506Z,27.5
2017-08-09T01:08:38.645Z,27.5
2017-08-09T01:09:40.417Z,27.5
2017-08-09T01:10:42.559Z,27.5
2017-08-09T01:11:44.360Z,27.6
2017-08-09T01:12:46.490Z,27.5
2017-08-09T01:13:47.934Z,27.5
2017-08-09T01:14:50.065Z,27.6
2017-08-09T01:15:52.195Z,27.5
2017-08-09T01:16:53.990Z,27.5
2017-08-09T01:17:56.118Z,27.5
2017-08-09T01:18:58.249Z,27.6
2017-08-09T01:20:00.023Z,27.5
2017-08-09T01:21:01.489Z,27.6
2017-08-09T01:22:03.285Z,27.5
2017-08-09T01:23:05.083Z,27.5
2017-08-09T01:24:06.882Z,27.6
2017-08-09T01:25:08.344Z,27.5
2017-08-09T01:26:10.117Z,27.6
2017-08-09T01:27:11.563Z,27.6
2017-08-09T01:28:13.340Z,27.5
2017-08-09T01:29:14.450Z,27.6
2017-08-09T01:30:15.228Z,27.5
2017-08-09T01:31:17.356Z,27.6
2017-08-09T01:32:19.484Z,27.6
2017-08-09T01:33:21.258Z,27.6
2017-08-09T01:34:23.388Z,27.6
2017-08-09T01:35:24.833Z,27.6
2017-08-09T01:36:26.964Z,27.5
2017-08-09T01:37:28.485Z,27.6
2017-08-09T01:38:29.956Z,27.5
2017-08-09T01:39:31.087Z,27.6
2017-08-09T01:40:32.884Z,27.5
2017-08-09T01:41:34.659Z,27.6
2017-08-09T01:42:36.789Z,27.5
2017-08-09T01:43:37.897Z,27.5
2017-08-09T01:44:39.342Z,27.5
2017-08-09T01:45:41.138Z,27.6
2017-08-09T01:46:43.267Z,27.5
2017-08-09T01:47:45.064Z,27.5
2017-08-09T01:48:47.269Z,27.5
2017-08-09T01:49:49.401Z,27.5
2017-08-09T01:50:51.198Z,27.5
2017-08-09T01:51:52.990Z,27.6
2017-08-09T01:52:55.123Z,27.5
2017-08-09T01:53:57.257Z,27.5
2017-08-09T01:54:59.039Z,27.5
2017-08-09T01:56:01.166Z,27.6
2017-08-09T01:57:02.963Z,27.5
2017-08-09T01:58:04.119Z,27.4
2017-08-09T01:59:06.237Z,27.5
2017-08-09T02:00:08.034Z,27.6
2017-08-09T02:01:09.481Z,27.6
2017-08-09T02:02:11.279Z,27.5
2017-08-09T02:03:13.078Z,27.5
2017-08-09T02:04:14.875Z,27.6
2017-08-09T02:05:17.008Z,27.4
2017-08-09T02:06:19.137Z,27.5
2017-08-09T02:07:21.270Z,27.5
2017-08-09T02:08:23.045Z,27.5
2017-08-09T02:09:25.175Z,27.5
2017-08-09T02:10:26.952Z,27.4
2017-08-09T02:11:28.417Z,27.5
2017-08-09T02:12:30.546Z,27.4
2017-08-09T02:13:32.677Z,27.5
2017-08-09T02:14:34.806Z,27.5
2017-08-09T02:15:36.935Z,27.5
2017-08-09T02:16:39.066Z,27.5
2017-08-09T02:17:41.197Z,27.5
2017-08-09T02:18:42.995Z,27.5
2017-08-09T02:19:45.126Z,27.5
2017-08-09T02:20:46.923Z,27.5
2017-08-09T02:21:48.033Z,27.5
2017-08-09T02:22:49.813Z,27.5
2017-08-09T02:23:51.612Z,27.5
2017-08-09T02:24:53.743Z,27.5
2017-08-09T02:25:55.872Z,27.5
2017-08-09T02:26:58.001Z,27.4
2017-08-09T02:27:59.808Z,27.5
2017-08-09T02:29:01.604Z,27.6
2017-08-09T02:30:03.070Z,27.4
2017-08-09T02:31:04.200Z,27.5
2017-08-09T02:32:06.000Z,27.5
2017-08-09T02:33:08.130Z,27.5
2017-08-09T02:34:10.259Z,27.5
2017-08-09T02:35:12.406Z,27.4
2017-08-09T02:36:14.595Z,27.5
2017-08-09T02:37:16.724Z,27.4
2017-08-09T02:38:18.855Z,27.5
2017-08-09T02:39:20.987Z,27.4
2017-08-09T02:40:23.120Z,27.5
2017-08-09T02:41:25.283Z,27.5
2017-08-09T02:42:27.457Z,27.5
2017-08-09T02:43:29.242Z,27.5
2017-08-09T02:44:30.687Z,27.5
2017-08-09T02:45:32.813Z,27.5
2017-08-09T02:46:34.943Z,27.4
2017-08-09T02:47:36.742Z,27.5
2017-08-09T02:48:38.518Z,27.5
2017-08-09T02:49:40.647Z,27.5
2017-08-09T02:50:42.448Z,27.5
2017-08-09T02:51:44.226Z,27.5
2017-08-09T02:52:46.024Z,27.6
2017-08-09T02:53:47.487Z,27.5
2017-08-09T02:54:48.951Z,27.5
2017-08-09T02:55:50.723Z,27.5
2017-08-09T02:56:52.522Z,27.5
2017-08-09T02:57:54.320Z,27.4
2017-08-09T02:58:56.451Z,27.4
2017-08-09T02:59:58.583Z,27.5
2017-08-09T03:01:00.721Z,27.5
2017-08-09T03:02:02.185Z,27.4
2017-08-09T03:03:03.980Z,27.4
2017-08-09T03:04:06.108Z,27.5
2017-08-09T03:05:08.247Z,27.5
2017-08-09T03:06:09.698Z,27.5
2017-08-09T03:07:11.494Z,27.4
2017-08-09T03:08:12.937Z,27.4
2017-08-09T03:09:15.067Z,27.5
2017-08-09T03:10:16.866Z,27.5
2017-08-09T03:11:18.665Z,27.4
2017-08-09T03:12:20.464Z,27.4
2017-08-09T03:13:22.296Z,27.5
2017-08-09T03:14:23.789Z,27.4
2017-08-09T03:15:25.924Z,27.4
2017-08-09T03:16:28.053Z,27.5
2017-08-09T03:17:29.519Z,27.4
2017-08-09T03:18:31.648Z,27.4
2017-08-09T03:19:33.449Z,27.5
2017-08-09T03:20:35.245Z,27.5
2017-08-09T03:21:36.692Z,27.4
2017-08-09T03:22:38.466Z,27.5
2017-08-09T03:23:40.595Z,27.5
2017-08-09T03:24:42.390Z,27.4
2017-08-09T03:25:44.518Z,27.5
2017-08-09T03:26:46.316Z,27.4
2017-08-09T03:27:48.447Z,27.4
2017-08-09T03:28:50.221Z,27.5
2017-08-09T03:29:51.691Z,27.6
2017-08-09T03:30:53.490Z,27.5
2017-08-09T03:31:55.296Z,27.4
2017-08-09T03:32:57.095Z,27.4
2017-08-09T03:33:58.562Z,27.4
2017-08-09T03:35:00.695Z,27.4
2017-08-09T03:36:02.491Z,27.5
2017-08-09T03:37:04.644Z,27.4
2017-08-09T03:38:06.431Z,27.4
2017-08-09T03:39:08.430Z,27.5
2017-08-09T03:40:10.560Z,27.4
2017-08-09T03:41:12.692Z,27.5
2017-08-09T03:42:14.824Z,27.5
2017-08-09T03:43:16.623Z,27.3
2017-08-09T03:44:18.754Z,27.4
2017-08-09T03:45:20.883Z,27.4
2017-08-09T03:46:22.683Z,27.4
2017-08-09T03:47:24.149Z,27.3
2017-08-09T03:48:25.598Z,27.5
2017-08-09T03:49:27.066Z,27.3
2017-08-09T03:50:28.868Z,27.4
2017-08-09T03:51:30.655Z,27.4
2017-08-09T03:52:32.788Z,27.5
2017-08-09T03:53:34.590Z,27.4
2017-08-09T03:54:36.054Z,27.5
2017-08-09T03:55:37.853Z,27.4
2017-08-09T03:56:39.323Z,27.4
2017-08-09T03:57:40.792Z,27.5
2017-08-09T03:58:42.586Z,27.4
2017-08-09T03:59:44.382Z,27.5
2017-08-09T04:00:46.179Z,27.5
2017-08-09T04:01:47.621Z,27.4
2017-08-09T04:02:49.754Z,27.5
2017-08-09T04:03:51.883Z,27.4
2017-08-09T04:04:54.012Z,27.5
2017-08-09T04:05:55.822Z,27.4
2017-08-09T04:06:57.601Z,27.4
2017-08-09T04:07:59.732Z,27.5
2017-08-09T04:09:01.513Z,27.5
2017-08-09T04:10:02.962Z,27.5
2017-08-09T04:11:04.760Z,27.4
2017-08-09T04:12:06.534Z,27.5
2017-08-09T04:13:08.351Z,27.4
2017-08-09T04:14:10.149Z,27.4
2017-08-09T04:15:11.948Z,27.4
2017-08-09T04:16:13.724Z,27.4
2017-08-09T04:17:15.853Z,27.4
2017-08-09T04:18:17.653Z,27.4
2017-08-09T04:19:19.116Z,27.5
2017-08-09T04:20:21.245Z,27.5
2017-08-09T04:21:23.044Z,27.4
2017-08-09T04:22:24.485Z,27.5
2017-08-09T04:23:26.283Z,27.5
2017-08-09T04:24:28.414Z,27.4
2017-08-09T04:25:29.883Z,27.4
2017-08-09T04:26:32.015Z,27.4
2017-08-09T04:27:33.817Z,27.4
2017-08-09T04:28:35.262Z,27.4
2017-08-09T04:29:37.394Z,27.5
2017-08-09T04:30:38.839Z,27.4
2017-08-09T04:31:40.642Z,27.5
2017-08-09T04:32:42.770Z,27.4
2017-08-09T04:33:44.901Z,27.4
2017-08-09T04:34:47.030Z,27.5
2017-08-09T04:35:48.147Z,27.3
2017-08-09T04:36:49.286Z,27.4
2017-08-09T04:37:51.418Z,27.4
2017-08-09T04:38:52.527Z,27.5
2017-08-09T04:39:54.662Z,27.3
2017-08-09T04:40:55.796Z,27.4
2017-08-09T04:41:57.237Z,27.5
2017-08-09T04:42:59.365Z,27.4
2017-08-09T04:44:01.493Z,27.5
2017-08-09T04:45:02.940Z,27.5
2017-08-09T04:46:04.739Z,27.5
2017-08-09T04:47:06.872Z,27.4
2017-08-09T04:48:08.667Z,27.4
2017-08-09T04:49:10.107Z,27.5
2017-08-09T04:50:11.554Z,27.5
2017-08-09T04:51:13.683Z,27.4
2017-08-09T04:52:15.463Z,27.5
2017-08-09T04:53:17.261Z,27.5
2017-08-09T04:54:19.392Z,27.4
2017-08-09T04:55:21.238Z,27.4
2017-08-09T04:56:23.013Z,27.4
2017-08-09T04:57:24.814Z,27.5
2017-08-09T04:58:26.276Z,27.4
2017-08-09T04:59:27.717Z,27.4
2017-08-09T05:00:29.184Z,27.5
2017-08-09T05:01:31.309Z,27.5
2017-08-09T05:02:33.113Z,27.5
2017-08-09T05:03:35.248Z,27.5
2017-08-09T05:04:37.046Z,27.4
2017-08-09T05:05:38.179Z,27.4
2017-08-09T05:06:40.310Z,27.5
2017-08-09T05:07:42.113Z,27.4
2017-08-09T05:08:43.916Z,27.5
2017-08-09T05:09:45.716Z,27.5
2017-08-09T05:10:47.500Z,27.6
2017-08-09T05:11:48.970Z,27.6
2017-08-09T05:12:50.774Z,27.4
2017-08-09T05:13:52.567Z,27.5
2017-08-09T05:14:54.369Z,27.5
2017-08-09T05:15:56.501Z,27.5
2017-08-09T05:16:57.624Z,27.5
2017-08-09T05:17:59.757Z,27.5
2017-08-09T05:19:01.559Z,27.4
2017-08-09T05:20:03.336Z,27.5
2017-08-09T05:21:05.464Z,27.5
2017-08-09T05:22:07.260Z,27.5
2017-08-09T05:23:09.391Z,27.5
2017-08-09T05:24:11.193Z,27.5
2017-08-09T05:25:12.994Z,27.5
2017-08-09T05:26:14.790Z,27.5
2017-08-09T05:27:16.588Z,27.5
2017-08-09T05:28:18.393Z,27.5
2017-08-09T05:29:20.191Z,27.5
2017-08-09T05:30:21.998Z,27.5
2017-08-09T05:31:24.130Z,27.4
2017-08-09T05:32:26.263Z,27.6
2017-08-09T05:33:28.394Z,27.6
2017-08-09T05:34:30.526Z,27.6
2017-08-09T05:35:32.658Z,27.6
2017-08-09T05:36:33.790Z,27.7
2017-08-09T05:37:35.592Z,27.7
2017-08-09T05:38:37.037Z,27.7
2017-08-09T05:39:39.171Z,27.7
2017-08-09T05:40:40.968Z,27.7
2017-08-09T05:41:43.098Z,27.7
2017-08-09T05:42:44.901Z,27.8
2017-08-09T05:43:47.033Z,27.9
2017-08-09T05:44:48.835Z,27.9
2017-08-09T05:45:50.611Z,28
2017-08-09T05:46:52.409Z,28
2017-08-09T05:47:54.208Z,28.1
2017-08-09T05:48:56.010Z,28.1
2017-08-09T05:49:57.811Z,28.1
2017-08-09T05:50:59.279Z,28.1
2017-08-09T05:52:00.408Z,28.2
2017-08-09T05:53:02.195Z,28.2
2017-08-09T05:54:03.313Z,28.2
2017-08-09T05:55:05.448Z,28.2
2017-08-09T05:56:07.246Z,28.2
2017-08-09T05:57:09.145Z,28.3
2017-08-09T05:58:10.259Z,28.2
2017-08-09T05:59:11.722Z,28.3
2017-08-09T06:00:13.855Z,28.2
2017-08-09T06:01:15.990Z,28.2
2017-08-09T06:02:17.513Z,28.2
2017-08-09T06:03:19.296Z,28.3
2017-08-09T06:04:20.746Z,28.4
2017-08-09T06:05:22.879Z,28.3
2017-08-09T06:06:25.017Z,28.2
2017-08-09T06:07:27.247Z,28.2
2017-08-09T06:08:28.716Z,28.3
2017-08-09T06:09:30.849Z,28.2
2017-08-09T06:10:32.654Z,28.2
2017-08-09T06:11:34.459Z,28.2
2017-08-09T06:12:36.258Z,28.1
2017-08-09T06:13:38.394Z,28.2
2017-08-09T06:14:40.524Z,28.2
2017-08-09T06:15:42.316Z,28.3
2017-08-09T06:16:43.785Z,28.2
2017-08-09T06:17:45.919Z,28.3
2017-08-09T06:18:47.726Z,28.4
2017-08-09T06:19:49.533Z,28.4
2017-08-09T06:20:51.341Z,28.3
2017-08-09T06:21:53.142Z,28.2
2017-08-09T06:22:54.607Z,28.3
2017-08-09T06:23:56.738Z,28.3
2017-08-09T06:24:58.208Z,28.3
2017-08-09T06:25:59.652Z,28.1
2017-08-09T06:27:00.760Z,28.1
2017-08-09T06:28:02.896Z,28.2
2017-08-09T06:29:04.714Z,28.2
2017-08-09T06:30:06.846Z,28.2
2017-08-09T06:31:08.647Z,28.2
2017-08-09T06:32:10.425Z,28.2
2017-08-09T06:33:11.893Z,28.2
2017-08-09T06:34:14.034Z,28.2
2017-08-09T06:35:15.816Z,28.3
2017-08-09T06:36:16.949Z,28.3
2017-08-09T06:37:18.399Z,28.3
2017-08-09T06:38:20.529Z,28.2
2017-08-09T06:39:22.329Z,28.2
2017-08-09T06:40:23.781Z,28.3
2017-08-09T06:41:25.562Z,28.3
2017-08-09T06:42:27.748Z,28.3
2017-08-09T06:43:29.894Z,28.4
2017-08-09T06:44:32.015Z,28.2
2017-08-09T06:45:33.467Z,28.3
2017-08-09T06:46:35.276Z,28.3
2017-08-09T06:47:37.057Z,28.3
2017-08-09T06:48:38.858Z,28.3
2017-08-09T06:49:40.989Z,28.2
2017-08-09T06:50:42.787Z,28.2
2017-08-09T06:51:44.587Z,28.2
2017-08-09T06:52:46.387Z,28.3
2017-08-09T06:53:48.519Z,28.3
2017-08-09T06:54:50.322Z,28.2
2017-08-09T06:55:51.792Z,28.2
2017-08-09T06:56:53.925Z,28.3
2017-08-09T06:57:55.710Z,28.2
2017-08-09T06:58:57.507Z,28.2
2017-08-09T06:59:58.978Z,28.2
2017-08-09T07:01:00.779Z,28.3
2017-08-09T07:02:02.584Z,28.3
2017-08-09T07:03:04.029Z,28.3
2017-08-09T07:04:05.489Z,28.3
2017-08-09T07:05:07.289Z,28.3
2017-08-09T07:06:08.740Z,28.3
2017-08-09T07:07:10.541Z,28.3
2017-08-09T07:08:12.680Z,28.4
2017-08-09T07:09:14.478Z,28.3
2017-08-09T07:10:15.935Z,28.2
2017-08-09T07:11:18.067Z,28.3
2017-08-09T07:12:19.869Z,28.4
2017-08-09T07:13:21.667Z,28.2
2017-08-09T07:14:23.801Z,28.4
2017-08-09T07:15:25.600Z,28.3
2017-08-09T07:16:27.740Z,28.3
2017-08-09T07:17:29.873Z,28.3
2017-08-09T07:18:32.017Z,28.3
2017-08-09T07:19:34.152Z,28.2
2017-08-09T07:20:35.272Z,28.2
2017-08-09T07:21:37.047Z,28.3
2017-08-09T07:22:39.186Z,28.3
2017-08-09T07:23:41.417Z,28.3
2017-08-09T07:24:43.218Z,28.3
2017-08-09T07:25:45.017Z,28.3
2017-08-09T07:26:46.818Z,28.3
2017-08-09T07:27:48.265Z,28.3
2017-08-09T07:28:50.406Z,28.4
2017-08-09T07:29:51.886Z,28.4
2017-08-09T07:30:54.008Z,28.3
2017-08-09T07:31:55.803Z,28.3
2017-08-09T07:32:56.918Z,28.3
2017-08-09T07:33:58.717Z,28.3
2017-08-09T07:35:00.849Z,28.3
2017-08-09T07:36:02.654Z,28.2
2017-08-09T07:37:04.790Z,28.3
2017-08-09T07:38:06.566Z,28.3
2017-08-09T07:39:08.367Z,28.3
2017-08-09T07:40:10.167Z,28.2
2017-08-09T07:41:11.618Z,28.3
2017-08-09T07:42:13.065Z,28.3
2017-08-09T07:43:15.195Z,28.2
2017-08-09T07:44:16.999Z,28.2
2017-08-09T07:45:19.130Z,28.4
2017-08-09T07:46:20.931Z,28.2
2017-08-09T07:47:23.061Z,28.3
2017-08-09T07:48:24.860Z,28.3
2017-08-09T07:49:26.714Z,28.2
2017-08-09T07:50:28.518Z,28.3
2017-08-09T07:51:30.320Z,28.3
2017-08-09T07:52:32.096Z,28.4
2017-08-09T07:53:33.877Z,28.3
2017-08-09T07:54:35.661Z,28.4
2017-08-09T07:55:37.821Z,28.4
2017-08-09T07:56:39.624Z,28.3
2017-08-09T07:57:41.424Z,28.3
2017-08-09T07:58:43.555Z,28.4
2017-08-09T07:59:45.353Z,28.3
2017-08-09T08:00:47.484Z,28.3
2017-08-09T08:01:49.617Z,28.3
2017-08-09T08:02:51.069Z,28.3
2017-08-09T08:03:52.851Z,28.3
2017-08-09T08:04:54.294Z,28.4
2017-08-09T08:05:56.094Z,28.4
2017-08-09T08:06:58.224Z,28.4
2017-08-09T08:08:00.361Z,28.3
2017-08-09T08:09:02.162Z,28.3
2017-08-09T08:10:04.294Z,28.3
2017-08-09T08:11:06.091Z,28.3
2017-08-09T08:12:08.226Z,28.3
2017-08-09T08:13:10.358Z,28.3
2017-08-09T08:14:12.165Z,28.3
2017-08-09T08:15:13.628Z,28.3
2017-08-09T08:16:15.762Z,28.3
2017-08-09T08:17:17.894Z,28.3
2017-08-09T08:18:19.676Z,28.3
2017-08-09T08:19:21.478Z,28.3
2017-08-09T08:20:23.254Z,28.3
2017-08-09T08:21:24.696Z,28.3
2017-08-09T08:22:26.173Z,28.2
2017-08-09T08:23:28.308Z,28.3
2017-08-09T08:24:30.108Z,28.4
2017-08-09T08:25:31.888Z,28.3
2017-08-09T08:26:34.020Z,28.3
2017-08-09T08:27:35.799Z,28.3
2017-08-09T08:28:37.607Z,28.3
2017-08-09T08:29:39.741Z,28.3
2017-08-09T08:30:41.594Z,28.2
2017-08-09T08:31:43.041Z,28.3
2017-08-09T08:32:44.833Z,28.2
2017-08-09T08:33:46.969Z,28.3
2017-08-09T08:34:49.112Z,28.3
2017-08-09T08:35:50.222Z,28.3
2017-08-09T08:36:51.700Z,28.4
2017-08-09T08:37:53.834Z,28.4
2017-08-09T08:38:55.967Z,28.4
2017-08-09T08:39:57.765Z,28.2
2017-08-09T08:40:59.649Z,28.4
2017-08-09T08:42:01.783Z,28.4
2017-08-09T08:43:03.235Z,28.2
2017-08-09T08:44:04.678Z,28.4
2017-08-09T08:45:06.129Z,28.4
2017-08-09T08:46:07.600Z,28.3
2017-08-09T08:47:09.736Z,28.3
2017-08-09T08:48:11.540Z,28.4
2017-08-09T08:49:13.674Z,28.4
2017-08-09T08:50:15.138Z,28.4
2017-08-09T08:51:17.274Z,28.4
2017-08-09T08:52:19.406Z,28.4
2017-08-09T08:53:21.203Z,28.4
2017-08-09T08:54:23.007Z,28.2
2017-08-09T08:55:24.808Z,28.4
2017-08-09T08:56:26.609Z,28.3
2017-08-09T08:57:28.386Z,28.3
2017-08-09T08:58:30.194Z,28.4
2017-08-09T08:59:32.323Z,28.3
2017-08-09T09:00:34.453Z,28.3
2017-08-09T09:01:36.584Z,28.2
2017-08-09T09:02:38.384Z,28.4
2017-08-09T09:03:40.518Z,28.3
2017-08-09T09:04:42.651Z,28.3
2017-08-09T09:05:44.787Z,28.4
2017-08-09T09:06:45.900Z,28.4
2017-08-09T09:07:47.695Z,28.3
2017-08-09T09:08:49.495Z,28.3
2017-08-09T09:09:51.626Z,28.4
2017-08-09T09:10:53.094Z,28.4
2017-08-09T09:11:55.231Z,28.4
2017-08-09T09:12:57.027Z,28.4
2017-08-09T09:13:58.476Z,28.3
2017-08-09T09:15:00.278Z,28.3
2017-08-09T09:16:02.408Z,28.4
2017-08-09T09:17:04.222Z,28.4
2017-08-09T09:18:06.036Z,28.5
2017-08-09T09:19:07.504Z,28.4
2017-08-09T09:20:09.635Z,28.4
2017-08-09T09:21:10.769Z,28.4
2017-08-09T09:22:12.565Z,28.4
2017-08-09T09:23:14.013Z,28.3
2017-08-09T09:24:15.815Z,28.4
2017-08-09T09:25:17.615Z,28.4
2017-08-09T09:26:19.750Z,28.4
2017-08-09T09:27:21.881Z,28.4
2017-08-09T09:28:23.687Z,28.4
2017-08-09T09:29:25.133Z,28.4
2017-08-09T09:30:27.265Z,28.4
2017-08-09T09:31:29.042Z,28.4
2017-08-09T09:32:30.818Z,28.4
2017-08-09T09:33:32.954Z,28.5
2017-08-09T09:34:34.766Z,28.4
2017-08-09T09:35:36.567Z,28.4
2017-08-09T09:36:38.369Z,28.4
2017-08-09T09:37:40.147Z,28.4
2017-08-09T09:38:41.263Z,28.4
2017-08-09T09:39:43.397Z,28.4
2017-08-09T09:40:44.860Z,28.5
2017-08-09T09:41:46.305Z,28.4
2017-08-09T09:42:47.426Z,28.5
2017-08-09T09:43:49.229Z,28.5
2017-08-09T09:44:51.363Z,28.4
2017-08-09T09:45:53.165Z,28.4
2017-08-09T09:46:54.966Z,28.4
2017-08-09T09:47:56.747Z,28.5
2017-08-09T09:48:58.887Z,28.5
2017-08-09T09:50:00.662Z,28.4
2017-08-09T09:51:02.458Z,28.5
2017-08-09T09:52:04.263Z,28.5
2017-08-09T09:53:06.398Z,28.5
2017-08-09T09:54:08.176Z,28.5
2017-08-09T09:55:10.309Z,28.5
2017-08-09T09:56:12.107Z,28.5
2017-08-09T09:57:14.238Z,28.5
2017-08-09T09:58:15.706Z,28.5
2017-08-09T09:59:17.836Z,28.5
2017-08-09T10:00:19.287Z,28.5
2017-08-09T10:01:21.086Z,28.5
2017-08-09T10:02:22.888Z,28.5
2017-08-09T10:03:24.669Z,28.5
2017-08-09T10:04:26.802Z,28.5
2017-08-09T10:05:28.937Z,28.5
2017-08-09T10:06:30.381Z,28.6
2017-08-09T10:07:32.520Z,28.6
2017-08-09T10:08:34.316Z,28.6
2017-08-09T10:09:35.435Z,28.6
2017-08-09T10:10:36.902Z,28.6
2017-08-09T10:11:39.037Z,28.7
2017-08-09T10:12:40.507Z,28.6
2017-08-09T10:13:42.288Z,28.6
2017-08-09T10:14:44.418Z,28.6
2017-08-09T10:15:45.888Z,28.6
2017-08-09T10:16:47.668Z,28.6
2017-08-09T10:17:49.520Z,28.6
2017-08-09T10:18:51.651Z,28.6
2017-08-09T10:19:53.102Z,28.6
2017-08-09T10:20:54.910Z,28.6
2017-08-09T10:21:57.039Z,28.6
2017-08-09T10:22:58.840Z,28.7
2017-08-09T10:24:00.977Z,28.6
2017-08-09T10:25:02.777Z,28.7
2017-08-09T10:26:04.578Z,28.7
2017-08-09T10:27:06.358Z,28.7
2017-08-09T10:28:07.823Z,28.7
2017-08-09T10:29:09.605Z,28.7
2017-08-09T10:30:11.410Z,28.7
2017-08-09T10:31:13.205Z,28.7
2017-08-09T10:32:15.340Z,28.7
2017-08-09T10:33:17.475Z,28.7
2017-08-09T10:34:19.611Z,28.7
2017-08-09T10:35:21.415Z,28.6
2017-08-09T10:36:22.887Z,28.7
2017-08-09T10:37:24.352Z,28.6
2017-08-09T10:38:26.153Z,28.7
2017-08-09T10:39:28.285Z,28.6
2017-08-09T10:40:29.737Z,28.7
2017-08-09T10:41:30.862Z,28.6
2017-08-09T10:42:32.332Z,28.6
2017-08-09T10:43:34.463Z,28.8
2017-08-09T10:44:36.269Z,28.7
2017-08-09T10:45:37.741Z,28.7
2017-08-09T10:46:39.876Z,28.7
2017-08-09T10:47:42.011Z,28.7
2017-08-09T10:48:43.807Z,28.6
2017-08-09T10:49:45.602Z,28.7
2017-08-09T10:50:47.047Z,28.7
2017-08-09T10:51:47.829Z,28.7
2017-08-09T10:52:49.962Z,28.7
2017-08-09T10:53:51.768Z,28.7
2017-08-09T10:54:53.238Z,28.6
2017-08-09T10:55:55.043Z,28.8
2017-08-09T10:56:57.174Z,28.8
2017-08-09T10:57:59.313Z,28.7
2017-08-09T10:59:01.492Z,28.7
2017-08-09T11:00:02.940Z,28.7
2017-08-09T11:01:04.718Z,28.7
2017-08-09T11:02:06.173Z,28.7
2017-08-09T11:03:07.973Z,28.6
2017-08-09T11:04:10.106Z,28.8
2017-08-09T11:05:11.918Z,28.7
2017-08-09T11:06:14.079Z,28.6
2017-08-09T11:07:15.550Z,28.8
2017-08-09T11:08:17.333Z,28.7
2017-08-09T11:09:18.779Z,28.8
2017-08-09T11:10:20.250Z,28.7
2017-08-09T11:11:22.383Z,28.7
2017-08-09T11:12:23.850Z,28.7
2017-08-09T11:13:24.628Z,28.8
2017-08-09T11:14:26.099Z,28.7
2017-08-09T11:15:27.570Z,28.8
2017-08-09T11:16:29.372Z,28.7
2017-08-09T11:17:31.152Z,28.7
2017-08-09T11:18:33.288Z,28.8
2017-08-09T11:19:35.421Z,28.8
2017-08-09T11:20:36.893Z,28.7
2017-08-09T11:21:38.342Z,28.8
2017-08-09T11:22:40.479Z,28.7
2017-08-09T11:23:42.611Z,28.8
2017-08-09T11:24:44.743Z,28.8
2017-08-09T11:25:46.560Z,28.8
2017-08-09T11:26:48.361Z,28.8
2017-08-09T11:27:50.491Z,28.8
2017-08-09T11:28:52.271Z,28.7
2017-08-09T11:29:54.049Z,28.8
2017-08-09T11:30:56.179Z,28.8
2017-08-09T11:31:58.315Z,28.7
2017-08-09T11:32:59.773Z,28.8
2017-08-09T11:34:01.910Z,28.7
2017-08-09T11:35:03.708Z,28.8
2017-08-09T11:36:05.511Z,28.7
2017-08-09T11:37:07.310Z,28.8
2017-08-09T11:38:09.449Z,28.8
2017-08-09T11:39:11.249Z,28.7
2017-08-09T11:40:13.047Z,28.7
2017-08-09T11:41:14.167Z,28.7
2017-08-09T11:42:15.973Z,28.7
2017-08-09T11:43:18.116Z,28.8
2017-08-09T11:44:19.586Z,28.8
2017-08-09T11:45:21.034Z,28.7
2017-08-09T11:46:23.162Z,28.8
2017-08-09T11:47:24.963Z,28.8
2017-08-09T11:48:26.737Z,28.8
2017-08-09T11:49:28.872Z,28.8
2017-08-09T11:50:30.321Z,28.7
2017-08-09T11:51:31.794Z,28.8
2017-08-09T11:52:32.908Z,28.8
2017-08-09T11:53:35.047Z,28.8
2017-08-09T11:54:36.824Z,28.8
2017-08-09T11:55:37.942Z,28.7
2017-08-09T11:56:39.739Z,28.8
2017-08-09T11:57:40.856Z,28.8
2017-08-09T11:58:42.989Z,28.8
2017-08-09T11:59:45.123Z,28.8
2017-08-09T12:00:46.961Z,28.7
2017-08-09T12:01:48.757Z,28.7
2017-08-09T12:02:50.558Z,28.7
2017-08-09T12:03:52.360Z,28.7
2017-08-09T12:04:54.494Z,28.7
2017-08-09T12:05:56.626Z,28.7
2017-08-09T12:06:58.436Z,28.8
2017-08-09T12:07:59.906Z,28.7
2017-08-09T12:09:01.377Z,28.8
2017-08-09T12:10:03.510Z,28.7
2017-08-09T12:11:05.642Z,28.6
2017-08-09T12:12:07.449Z,28.7
2017-08-09T12:13:09.228Z,28.6
2017-08-09T12:14:11.372Z,28.7
2017-08-09T12:15:12.813Z,28.7
2017-08-09T12:16:14.948Z,28.7
2017-08-09T12:17:16.745Z,28.7
2017-08-09T12:18:18.881Z,28.8
2017-08-09T12:19:21.023Z,28.8
2017-08-09T12:20:23.151Z,28.8
2017-08-09T12:21:24.598Z,28.6
2017-08-09T12:22:26.378Z,28.8
2017-08-09T12:23:28.199Z,28.7
2017-08-09T12:24:29.998Z,28.8
2017-08-09T12:25:32.134Z,28.8
2017-08-09T12:26:33.274Z,28.7
2017-08-09T12:27:35.416Z,28.8
2017-08-09T12:28:36.869Z,28.8
2017-08-09T12:29:38.333Z,28.7
2017-08-09T12:30:39.803Z,28.8
2017-08-09T12:31:41.606Z,28.7
2017-08-09T12:32:43.408Z,28.8
2017-08-09T12:33:45.545Z,28.8
2017-08-09T12:34:47.013Z,28.8
2017-08-09T12:35:48.813Z,28.7
2017-08-09T12:36:50.262Z,28.7
2017-08-09T12:37:51.727Z,28.8
2017-08-09T12:38:52.842Z,28.8
2017-08-09T12:39:54.295Z,28.7
2017-08-09T12:40:56.426Z,28.8
2017-08-09T12:41:58.561Z,28.8
2017-08-09T12:43:00.341Z,28.7
2017-08-09T12:44:01.452Z,28.8
2017-08-09T12:45:02.906Z,28.8
2017-08-09T12:46:04.345Z,28.8
2017-08-09T12:47:06.485Z,28.7
2017-08-09T12:48:07.617Z,28.8
2017-08-09T12:49:09.413Z,28.8
2017-08-09T12:50:10.881Z,28.8
2017-08-09T12:51:12.683Z,28.7
2017-08-09T12:52:14.465Z,28.8
2017-08-09T12:53:16.249Z,28.8
2017-08-09T12:54:17.718Z,28.9
2017-08-09T12:55:19.515Z,28.9
2017-08-09T12:56:21.647Z,28.9
2017-08-09T12:57:23.117Z,29
2017-08-09T12:58:24.590Z,28.9
2017-08-09T12:59:26.721Z,29
2017-08-09T13:00:28.522Z,28.9
2017-08-09T13:01:30.322Z,28.9
2017-08-09T13:02:32.126Z,28.8
2017-08-09T13:03:34.258Z,28.9
2017-08-09T13:04:36.058Z,28.9
2017-08-09T13:05:37.863Z,28.9
2017-08-09T13:06:39.994Z,28.8
2017-08-09T13:07:41.796Z,28.8
2017-08-09T13:08:43.930Z,28.8
2017-08-09T13:09:46.063Z,28.8
2017-08-09T13:10:47.512Z,28.8
2017-08-09T13:11:48.960Z,28.8
2017-08-09T13:12:50.762Z,28.9
2017-08-09T13:13:52.892Z,28.8
2017-08-09T13:14:54.338Z,28.8
2017-08-09T13:15:56.470Z,28.8
2017-08-09T13:16:58.600Z,28.8
2017-08-09T13:18:00.092Z,28.8
2017-08-09T13:19:01.201Z,28.9
2017-08-09T13:20:03.005Z,28.9
2017-08-09T13:21:05.142Z,28.9
2017-08-09T13:22:07.274Z,28.8
2017-08-09T13:23:09.505Z,28.9
2017-08-09T13:24:11.638Z,28.8
2017-08-09T13:25:13.770Z,28.9
2017-08-09T13:26:15.547Z,28.8
2017-08-09T13:27:17.345Z,28.9
2017-08-09T13:28:19.148Z,28.9
2017-08-09T13:29:21.278Z,28.9
2017-08-09T13:30:22.391Z,28.9
2017-08-09T13:31:24.173Z,28.9
2017-08-09T13:32:26.304Z,28.9
2017-08-09T13:33:28.101Z,28.9
2017-08-09T13:34:29.903Z,28.8
2017-08-09T13:35:32.035Z,28.8
2017-08-09T13:36:34.166Z,28.9
2017-08-09T13:37:35.963Z,28.9
2017-08-09T13:38:37.746Z,28.9
2017-08-09T13:39:39.576Z,28.9
2017-08-09T13:40:41.706Z,29
2017-08-09T13:41:43.510Z,29
2017-08-09T13:42:45.290Z,29
2017-08-09T13:43:47.095Z,29